createdAt,value
2022-12-05T15:11:50.173Z,100595.16
2022-12-05T15:14:22.564Z,100600.66
2022-12-05T15:16:55.639Z,100602.39
2022-12-05T15:19:30.587Z,100600.34
2022-12-05T15:22:02.954Z,100602.61
2022-12-05T15:24:38.121Z,100606.79
2022-12-05T15:27:08.030Z,100598.80
2022-12-05T15:29:36.274Z,100597.41
2022-12-05T15:32:06.651Z,100592.92
2022-12-05T15:34:39.287Z,100596.47
2022-12-05T15:37:15.547Z,100592.69
2022-12-05T15:39:58.035Z,100591.32
2022-12-05T15:42:29.983Z,100599.71
2022-12-05T15:45:14.004Z,100594.41
2022-12-05T15:47:41.986Z,100584.80
2022-12-05T15:50:16.012Z,100586.52
2022-12-05T15:52:48.950Z,100581.91
2022-12-05T15:55:21.200Z,100572.98
2022-12-05T15:57:53.263Z,100580.67
2022-12-05T16:00:26.418Z,100583.23
2022-12-05T16:03:00.151Z,100583.23
2022-12-05T16:05:34.796Z,100581.70
2022-12-05T16:08:06.169Z,100572.98
2022-12-05T16:10:34.006Z,100570.45
2022-12-05T16:13:06.681Z,100579.20
2022-12-05T16:15:34.717Z,100572.84
2022-12-05T16:18:06.170Z,100576.45
2022-12-05T16:20:36.703Z,100569.94
2022-12-05T16:23:07.076Z,100569.27
2022-12-05T16:25:36.487Z,100569.12
2022-12-05T16:28:16.832Z,100569.98
2022-12-05T16:30:53.737Z,100566.38
2022-12-05T16:33:19.722Z,100563.30
2022-12-05T16:35:49.011Z,100566.39
2022-12-05T16:38:19.654Z,100563.00
2022-12-05T16:40:56.869Z,100559.09
2022-12-05T16:43:30.277Z,100559.10
2022-12-05T16:46:00.830Z,100556.16
2022-12-05T16:48:29.964Z,100547.63
2022-12-05T16:51:21.403Z,100547.29
2022-12-05T16:53:50.378Z,100550.15
2022-12-05T16:56:21.159Z,100548.12
2022-12-05T16:58:49.432Z,100541.92
2022-12-05T17:01:20.875Z,100545.70
2022-12-05T17:03:48.696Z,100551.15
2022-12-05T17:06:16.310Z,100548.23
2022-12-05T17:08:44.025Z,100546.55
2022-12-05T17:11:15.702Z,100547.44
2022-12-05T17:13:45.372Z,100548.66
2022-12-05T17:16:13.147Z,100544.23
2022-12-05T17:18:40.455Z,100541.67
2022-12-05T17:21:08.097Z,100539.11
2022-12-05T17:23:35.535Z,100540.32
2022-12-05T17:26:03.416Z,100540.35
2022-12-05T17:28:31.370Z,100540.89
2022-12-05T17:30:58.748Z,100540.71
2022-12-05T17:33:26.594Z,100536.44
2022-12-05T17:35:53.946Z,100537.46
2022-12-05T17:38:22.201Z,100536.08
2022-12-05T17:40:49.721Z,100535.74
2022-12-05T17:43:23.046Z,100533.84
2022-12-05T17:45:53.009Z,100535.23
2022-12-05T17:48:20.451Z,100534.38
2022-12-05T17:50:49.855Z,100532.34
2022-12-05T17:53:18.850Z,100527.91
2022-12-05T17:55:48.896Z,100527.95
2022-12-05T17:58:16.627Z,100528.84
2022-12-05T18:00:45.256Z,100530.39
2022-12-05T18:03:15.239Z,100524.55
2022-12-05T18:05:42.890Z,100524.55
2022-12-05T18:08:10.827Z,100521.64
2022-12-05T18:10:38.419Z,100526.97
2022-12-05T18:13:06.185Z,100528.52
2022-12-05T18:15:37.974Z,100530.42
2022-12-05T18:18:09.088Z,100534.38
2022-12-05T18:20:36.849Z,100537.13
2022-12-05T18:23:04.617Z,100536.10
2022-12-05T18:25:32.385Z,100538.52
2022-12-05T18:27:59.846Z,100535.60
2022-12-05T18:30:27.291Z,100529.29
2022-12-05T18:32:54.605Z,100529.81
2022-12-05T18:35:40.428Z,100525.04
2022-12-05T18:38:08.096Z,100523.19
2022-12-05T18:40:35.560Z,100517.54
2022-12-05T18:43:03.477Z,100514.29
2022-12-05T18:45:30.670Z,100514.95
2022-12-05T18:48:09.832Z,100505.85
2022-12-05T18:50:43.816Z,100512.04
2022-12-05T18:53:11.096Z,100519.75
2022-12-05T18:55:58.421Z,100520.06
2022-12-05T18:58:26.939Z,100524.35
2022-12-05T19:00:54.383Z,100528.44
2022-12-05T19:03:21.856Z,100521.08
2022-12-05T19:05:49.144Z,100523.83
2022-12-05T19:08:16.852Z,100522.64
2022-12-05T19:10:44.345Z,100519.73
2022-12-05T19:13:11.652Z,100522.45
2022-12-05T19:15:40.168Z,100522.62
2022-12-05T19:18:07.770Z,100521.92
2022-12-05T19:20:35.123Z,100520.20
2022-12-05T19:23:02.373Z,100524.65
2022-12-05T19:25:31.365Z,100517.98
2022-12-05T19:27:58.737Z,100520.40
2022-12-05T19:30:25.924Z,100522.45
2022-12-05T19:32:53.696Z,100520.04
2022-12-05T19:35:21.482Z,100521.21
2022-12-05T19:37:48.652Z,100529.95
2022-12-05T19:40:16.737Z,100525.48
2022-12-05T19:42:44.202Z,100524.64
2022-12-05T19:45:17.742Z,100521.73
2022-12-05T19:47:45.750Z,100517.30
2022-12-05T19:50:13.467Z,100515.95
2022-12-05T19:52:40.872Z,100514.40
2022-12-05T19:55:09.374Z,100511.82
2022-12-05T19:57:38.346Z,100501.20
2022-12-05T20:00:06.495Z,100502.73
2022-12-05T20:02:40.418Z,100501.55
2022-12-05T20:05:09.091Z,100503.25
2022-12-05T20:07:36.514Z,100504.62
2022-12-05T20:10:03.624Z,100497.60
2022-12-05T20:12:31.078Z,100495.89
2022-12-05T20:14:58.483Z,100501.39
2022-12-05T20:17:26.180Z,100488.39
2022-12-05T20:19:53.700Z,100480.20
2022-12-05T20:22:20.906Z,100481.77
2022-12-05T20:24:48.199Z,100488.27
2022-12-05T20:27:15.515Z,100475.08
2022-12-05T20:29:42.768Z,100480.41
2022-12-05T20:32:10.266Z,100479.38
2022-12-05T20:34:37.727Z,100471.30
2022-12-05T20:37:05.037Z,100471.63
2022-12-05T20:39:33.148Z,100478.26
2022-12-05T20:42:00.468Z,100475.67
2022-12-05T20:44:28.027Z,100477.58
2022-12-05T20:46:55.585Z,100472.81
2022-12-05T20:49:23.146Z,100470.27
2022-12-05T20:51:50.601Z,100478.84
2022-12-05T20:54:18.529Z,100467.19
2022-12-05T20:56:46.236Z,100469.60
2022-12-05T20:59:15.034Z,100471.15
2022-12-05T21:01:42.787Z,100479.04
2022-12-05T21:04:12.751Z,100473.55
2022-12-05T21:06:43.076Z,100466.88
2022-12-05T21:09:15.605Z,100467.40
2022-12-05T21:11:43.293Z,100459.18
2022-12-05T21:14:10.524Z,100467.07
2022-12-05T21:16:37.978Z,100463.13
2022-12-05T21:19:05.142Z,100465.02
2022-12-05T21:21:34.466Z,100459.52
2022-12-05T21:24:03.172Z,100461.05
2022-12-05T21:26:34.063Z,100457.48
2022-12-05T21:29:03.764Z,100457.46
2022-12-05T21:31:33.336Z,100458.85
2022-12-05T21:34:02.926Z,100456.64
2022-12-05T21:36:32.588Z,100457.67
2022-12-05T21:39:00.199Z,100455.27
2022-12-05T21:41:27.913Z,100457.85
2022-12-05T21:43:56.009Z,100447.23
2022-12-05T21:46:23.741Z,100439.85
2022-12-05T21:48:51.527Z,100444.48
2022-12-05T21:51:18.968Z,100444.32
2022-12-05T21:53:46.337Z,100440.21
2022-12-05T21:56:15.944Z,100438.84
2022-12-05T21:58:44.011Z,100436.27
2022-12-05T22:01:12.248Z,100436.10
2022-12-05T22:03:39.640Z,100438.15
2022-12-05T22:06:09.175Z,100442.77
2022-12-05T22:08:37.314Z,100440.18
2022-12-05T22:11:10.302Z,100440.02
2022-12-05T22:13:39.072Z,100442.24
2022-12-05T22:16:08.545Z,100435.55
2022-12-05T22:18:36.404Z,100428.18
2022-12-05T22:21:05.368Z,100430.07
2022-12-05T22:23:33.120Z,100429.72
2022-12-05T22:26:02.336Z,100433.49
2022-12-05T22:28:30.511Z,100425.27
2022-12-05T22:30:59.210Z,100419.61
2022-12-05T22:33:27.967Z,100415.86
2022-12-05T22:35:57.176Z,100414.15
2022-12-05T22:38:25.139Z,100410.39
2022-12-05T22:40:57.925Z,100399.42
2022-12-05T22:43:26.290Z,100395.46
2022-12-05T22:45:54.059Z,100402.48
2022-12-05T22:48:21.611Z,100389.62
2022-12-05T22:50:53.284Z,100391.16
2022-12-05T22:53:21.654Z,100385.34
2022-12-05T22:55:49.112Z,100387.59
2022-12-05T22:58:16.751Z,100392.37
2022-12-05T23:00:44.125Z,100385.52
2022-12-05T23:03:12.705Z,100381.05
2022-12-05T23:05:44.334Z,100386.20
2022-12-05T23:08:12.281Z,100393.73
2022-12-05T23:10:40.474Z,100390.64
2022-12-05T23:13:07.861Z,100386.02
2022-12-05T23:15:35.500Z,100386.52
2022-12-05T23:18:03.258Z,100382.40
2022-12-05T23:20:30.850Z,100387.20
2022-12-05T23:22:58.572Z,100387.39
2022-12-05T23:25:26.066Z,100382.77
2022-12-05T23:27:53.733Z,100384.83
2022-12-05T23:30:22.014Z,100385.86
2022-12-05T23:32:49.376Z,100388.76
2022-12-05T23:35:16.716Z,100386.86
2022-12-05T23:37:43.881Z,100387.38
2022-12-05T23:40:12.127Z,100373.81
2022-12-05T23:42:39.350Z,100372.63
2022-12-05T23:45:08.495Z,100372.46
2022-12-05T23:47:36.116Z,100364.42
2022-12-05T23:50:03.610Z,100366.83
2022-12-05T23:52:31.391Z,100376.61
2022-12-05T23:54:59.124Z,100368.38
2022-12-05T23:57:26.600Z,100358.95
2022-12-05T23:59:54.258Z,100364.45
